Time;durP1;ratioP1;P1;durP2;ratioP2;P2;SDS_P1;SDS_P2;PMS_P1;PMS_P2;Temp;Humidity;BMP_temperature;BMP_pressure;BME280_temperature;BME280_humidity;BME280_pressure;Samples;Min_cycle;Max_cycle;Signal;HPM_P1;HPM_P2
2022/05/07 00:00:09;;;;;;;4.07;3.87;;;19.70;44.40;;;;;;5064697;28;20226;-59
2022/05/07 00:02:35;;;;;;;4.40;4.20;;;19.70;44.30;;;;;;5056073;28;20209;-58
2022/05/07 00:05:01;;;;;;;3.80;3.60;;;19.70;44.30;;;;;;5056380;28;20656;-59
2022/05/07 00:07:26;;;;;;;3.40;3.20;;;19.70;45.00;;;;;;5058901;28;20218;-58
2022/05/07 00:09:52;;;;;;;3.57;3.37;;;19.70;44.40;;;;;;5060071;28;20221;-58
2022/05/07 00:12:17;;;;;;;3.93;3.73;;;19.70;44.40;;;;;;5056396;28;20751;-58
2022/05/07 00:14:43;;;;;;;3.80;3.50;;;19.70;44.30;;;;;;5055032;28;20746;-59
2022/05/07 00:19:53;;;;;;;4.30;4.10;;;19.70;44.30;;;;;;5054169;28;20236;-60
2022/05/07 00:22:19;;;;;;;4.00;3.80;;;19.70;44.30;;;;;;5061541;28;20817;-58
2022/05/07 00:24:44;;;;;;;4.30;4.10;;;19.70;44.20;;;;;;5062559;28;20224;-58
2022/05/07 00:27:12;;;;;;;3.97;3.77;;;19.70;44.20;;;;;;5058271;28;20229;-58
2022/05/07 00:29:38;;;;;;;3.73;3.53;;;19.70;44.20;;;;;;5058222;28;20219;-58
2022/05/07 00:32:04;;;;;;;4.13;3.93;;;19.70;44.20;;;;;;5059968;28;20486;-59
2022/05/07 00:34:29;;;;;;;4.43;4.23;;;19.70;44.20;;;;;;5055781;28;20301;-58
2022/05/07 00:36:55;;;;;;;4.30;4.10;;;19.70;44.20;;;;;;5059035;28;20301;-58
2022/05/07 00:39:21;;;;;;;4.30;4.10;;;19.70;44.20;;;;;;5056309;28;20635;-58
2022/05/07 00:41:46;;;;;;;3.90;3.70;;;19.70;44.20;;;;;;5060114;28;20231;-58
2022/05/07 00:44:12;;;;;;;3.87;3.67;;;19.70;44.30;;;;;;5061622;28;20295;-58
2022/05/07 00:46:37;;;;;;;4.37;4.17;;;19.70;44.10;;;;;;5061188;28;20210;-58
2022/05/07 00:49:03;;;;;;;4.80;4.40;;;19.70;44.30;;;;;;5060206;28;20685;-58
2022/05/07 00:51:35;;;;;;;4.60;4.33;;;19.70;44.40;;;;;;5063068;28;20229;-58
2022/05/07 00:54:06;;;;;;;3.90;3.70;;;19.70;44.30;;;;;;5061600;28;20245;-58
2022/05/07 00:56:33;;;;;;;4.13;3.93;;;19.70;44.30;;;;;;5060900;28;20429;-58
2022/05/07 00:58:58;;;;;;;3.80;3.60;;;19.70;44.30;;;;;;5063185;28;20530;-58
2022/05/07 01:01:25;;;;;;;4.27;3.97;;;19.70;44.40;;;;;;5065467;28;20549;-58
2022/05/07 01:03:52;;;;;;;4.70;4.50;;;19.70;44.40;;;;;;5060103;28;20230;-58
2022/05/07 01:06:18;;;;;;;3.90;3.70;;;19.70;44.40;;;;;;5058811;28;20429;-57
2022/05/07 01:08:46;;;;;;;4.03;3.83;;;19.70;44.40;;;;;;5061322;28;20450;-58
2022/05/07 01:11:12;;;;;;;5.00;4.70;;;19.70;44.40;;;;;;5060810;28;20227;-58
2022/05/07 01:13:38;;;;;;;3.93;3.73;;;19.70;44.40;;;;;;5057973;28;20463;-58
2022/05/07 01:16:04;;;;;;;3.70;3.50;;;19.70;44.40;;;;;;5094151;28;20846;-58
2022/05/07 01:18:30;;;;;;;4.03;3.83;;;19.70;44.40;;;;;;5061464;28;20459;-58
2022/05/07 01:20:57;;;;;;;4.37;4.10;;;19.70;44.40;;;;;;5062186;28;20229;-58
2022/05/07 01:23:24;;;;;;;4.07;3.87;;;19.70;44.40;;;;;;5062104;28;20572;-59
2022/05/07 01:25:49;;;;;;;4.80;4.50;;;19.70;44.40;;;;;;5063855;28;20443;-58
2022/05/07 01:28:15;;;;;;;4.20;4.00;;;19.70;45.20;;;;;;5062949;28;20501;-58
2022/05/07 01:30:40;;;;;;;4.47;4.27;;;19.70;44.50;;;;;;5057313;28;20218;-58
2022/05/07 01:33:06;;;;;;;4.00;3.80;;;19.70;44.40;;;;;;5065542;28;20683;-58
2022/05/07 01:35:32;;;;;;;4.10;3.90;;;19.70;44.40;;;;;;5068571;28;20218;-58
2022/05/07 01:37:57;;;;;;;3.83;3.63;;;19.70;44.40;;;;;;5057649;28;20226;-59
2022/05/07 01:40:23;;;;;;;4.50;4.20;;;19.70;44.40;;;;;;5058153;28;20222;-58
2022/05/07 01:42:48;;;;;;;4.43;4.23;;;19.70;44.40;;;;;;5066672;28;20260;-58
2022/05/07 01:45:14;;;;;;;4.03;3.83;;;19.70;44.40;;;;;;5060962;28;20222;-58
2022/05/07 01:50:24;;;;;;;4.40;4.20;;;19.70;44.40;;;;;;5055425;28;20283;-58
2022/05/07 01:52:50;;;;;;;3.60;3.40;;;19.70;44.40;;;;;;5092507;28;20468;-58
2022/05/07 01:55:15;;;;;;;4.23;3.97;;;19.70;44.40;;;;;;5055335;28;20236;-57
2022/05/07 01:57:41;;;;;;;5.60;5.30;;;19.70;44.40;;;;;;5059241;28;20218;-58
2022/05/07 02:00:08;;;;;;;4.40;4.20;;;19.70;44.40;;;;;;5059511;28;20213;-58
2022/05/07 02:02:34;;;;;;;4.23;4.03;;;19.70;44.40;;;;;;5061544;28;20230;-58
2022/05/07 02:05:00;;;;;;;4.70;4.40;;;19.70;44.40;;;;;;5060871;28;20446;-58
2022/05/07 02:07:25;;;;;;;3.70;3.50;;;19.70;44.40;;;;;;5063062;28;20243;-58
2022/05/07 02:09:51;;;;;;;4.73;4.53;;;19.70;44.40;;;;;;5059565;28;20563;-58
2022/05/07 02:12:17;;;;;;;4.07;3.87;;;19.70;44.40;;;;;;5064181;28;20236;-58
2022/05/07 02:14:43;;;;;;;4.67;4.37;;;19.70;44.40;;;;;;5062557;28;20449;-58
2022/05/07 02:17:09;;;;;;;4.63;4.43;;;19.70;44.40;;;;;;5059531;28;20505;-58
2022/05/07 02:19:35;;;;;;;5.37;5.07;;;19.70;44.40;;;;;;5060449;28;20226;-58
2022/05/07 02:22:00;;;;;;;5.30;3.80;;;19.70;44.40;;;;;;5062218;28;20444;-58
2022/05/07 02:24:26;;;;;;;4.60;4.30;;;19.70;44.40;;;;;;5062027;28;20226;-58
2022/05/07 02:26:51;;;;;;;4.17;3.97;;;19.70;44.40;;;;;;5061823;28;20284;-58
2022/05/07 02:29:17;;;;;;;4.60;4.40;;;19.70;44.50;;;;;;5061705;28;20218;-57
2022/05/07 02:32:03;;;;;;;4.53;4.27;;;19.70;44.40;;;;;;5065735;28;20217;-58
2022/05/07 02:34:30;;;;;;;4.40;4.20;;;19.70;44.40;;;;;;5061140;28;20776;-58
2022/05/07 02:36:56;;;;;;;3.80;3.60;;;19.70;44.40;;;;;;5057704;28;20414;-58
2022/05/07 02:39:21;;;;;;;4.63;4.33;;;19.70;44.40;;;;;;5057644;28;21016;-58
2022/05/07 02:44:31;;;;;;;4.40;4.20;;;19.70;44.40;;;;;;5067423;28;20266;-58
2022/05/07 02:46:57;;;;;;;4.30;4.10;;;19.70;44.40;;;;;;5062271;28;20558;-57
2022/05/07 02:49:22;;;;;;;4.37;4.17;;;19.70;44.40;;;;;;5060007;28;20223;-57
2022/05/07 02:51:48;;;;;;;3.93;3.73;;;19.70;44.40;;;;;;5059058;28;20234;-58
2022/05/07 02:54:13;;;;;;;4.53;4.33;;;19.70;44.40;;;;;;5063939;28;20234;-58
2022/05/07 02:56:39;;;;;;;4.30;4.10;;;19.70;44.40;;;;;;5060309;28;20209;-58
2022/05/07 02:59:05;;;;;;;4.30;4.10;;;19.70;44.40;;;;;;5062350;28;20214;-58
2022/05/07 03:01:30;;;;;;;4.47;4.20;;;19.70;44.40;;;;;;5061990;28;20677;-58
2022/05/07 03:03:56;;;;;;;3.73;3.53;;;19.70;44.40;;;;;;5061332;28;20317;-58
2022/05/07 03:06:21;;;;;;;3.80;3.60;;;19.70;44.40;;;;;;5056279;28;20219;-57
2022/05/07 03:08:47;;;;;;;4.33;4.13;;;19.70;44.40;;;;;;5059430;28;20222;-58
2022/05/07 03:11:14;;;;;;;3.93;3.73;;;19.60;44.30;;;;;;5062899;28;20224;-58
2022/05/07 03:13:40;;;;;;;4.93;4.63;;;19.70;44.40;;;;;;5059179;28;20245;-58
2022/05/07 03:16:06;;;;;;;4.83;4.53;;;19.70;44.40;;;;;;5052182;28;20443;-58
2022/05/07 03:18:32;;;;;;;4.60;4.30;;;19.70;44.40;;;;;;5062677;28;20280;-58
2022/05/07 03:20:58;;;;;;;4.30;4.10;;;19.60;44.30;;;;;;5059209;28;20987;-58
2022/05/07 03:23:25;;;;;;;4.47;4.27;;;19.60;44.30;;;;;;5060640;28;20230;-57
2022/05/07 03:25:51;;;;;;;4.47;4.17;;;19.60;44.30;;;;;;5061587;28;20440;-57
2022/05/07 03:28:17;;;;;;;4.63;4.33;;;19.60;44.30;;;;;;5061788;28;20475;-58
2022/05/07 03:30:42;;;;;;;4.77;4.47;;;19.70;44.40;;;;;;5060819;28;20228;-59
2022/05/07 03:33:08;;;;;;;4.10;3.90;;;19.70;44.40;;;;;;5061212;28;20238;-60
2022/05/07 03:35:34;;;;;;;4.57;4.37;;;19.60;44.30;;;;;;5059165;28;20246;-59
2022/05/07 03:37:59;;;;;;;4.67;4.27;;;19.70;44.40;;;;;;5060736;28;20216;-58
2022/05/07 03:40:25;;;;;;;3.40;3.20;;;19.70;44.40;;;;;;5058787;28;20221;-57
2022/05/07 03:42:51;;;;;;;4.50;4.30;;;19.70;44.40;;;;;;5065095;28;20222;-57
2022/05/07 03:45:16;;;;;;;4.23;4.03;;;19.60;44.30;;;;;;5063359;28;20272;-58
2022/05/07 03:47:42;;;;;;;4.43;4.13;;;19.70;44.40;;;;;;5057343;28;20241;-58
2022/05/07 03:50:08;;;;;;;4.40;4.20;;;19.70;44.40;;;;;;5059241;28;20308;-58
2022/05/07 03:55:18;;;;;;;3.70;3.50;;;19.70;44.40;;;;;;5056783;28;20425;-57
2022/05/07 03:57:47;;;;;;;4.30;4.10;;;19.60;44.30;;;;;;5062219;28;20448;-58
2022/05/07 04:00:13;;;;;;;4.20;4.00;;;19.60;44.30;;;;;;5059952;28;20218;-58
2022/05/07 04:02:38;;;;;;;4.30;4.10;;;19.60;44.30;;;;;;5060841;28;20480;-57
2022/05/07 04:05:04;;;;;;;4.30;4.10;;;19.60;44.30;;;;;;5056515;28;20228;-58
2022/05/07 04:07:30;;;;;;;4.60;4.30;;;19.60;44.30;;;;;;5059092;28;20385;-57
2022/05/07 04:09:56;;;;;;;4.40;4.20;;;19.60;44.30;;;;;;5059487;28;20513;-58
2022/05/07 04:12:21;;;;;;;4.53;4.13;;;19.60;44.30;;;;;;5060370;28;20741;-57
2022/05/07 04:14:47;;;;;;;4.43;4.23;;;19.60;45.10;;;;;;5058391;28;20735;-58
2022/05/07 04:17:13;;;;;;;4.50;4.13;;;19.60;44.30;;;;;;5057283;28;20257;-58
2022/05/07 04:19:39;;;;;;;4.90;4.60;;;19.60;44.30;;;;;;5057798;28;20587;-58
2022/05/07 04:22:05;;;;;;;4.60;4.37;;;19.60;44.30;;;;;;5057848;28;20451;-58
2022/05/07 04:24:33;;;;;;;4.00;3.80;;;19.60;44.30;;;;;;5060637;28;20442;-58
2022/05/07 04:26:59;;;;;;;4.63;4.43;;;19.60;44.30;;;;;;5058937;28;20214;-58
2022/05/07 04:29:24;;;;;;;4.40;4.20;;;19.60;44.30;;;;;;5055814;28;20512;-58
2022/05/07 04:31:50;;;;;;;4.73;4.43;;;19.60;44.30;;;;;;5062579;28;21756;-57
2022/05/07 04:34:15;;;;;;;4.40;4.20;;;19.60;44.30;;;;;;5056842;28;20251;-58
2022/05/07 04:36:42;;;;;;;4.53;4.23;;;19.60;44.30;;;;;;5056378;28;20221;-57
2022/05/07 04:39:07;;;;;;;3.80;3.60;;;19.60;44.30;;;;;;5057049;28;20303;-58
2022/05/07 04:41:33;;;;;;;4.17;3.97;;;19.60;44.30;;;;;;5057776;28;20503;-58
2022/05/07 04:44:01;;;;;;;4.20;4.00;;;19.60;44.30;;;;;;5058443;28;20241;-57
2022/05/07 04:46:26;;;;;;;4.97;4.40;;;19.60;44.30;;;;;;5060465;28;20296;-58
2022/05/07 04:48:52;;;;;;;4.50;4.20;;;19.60;44.30;;;;;;5053796;28;20522;-58
2022/05/07 04:51:18;;;;;;;5.00;4.70;;;19.60;44.30;;;;;;5056967;28;20291;-58
2022/05/07 04:53:44;;;;;;;4.63;4.33;;;19.60;44.30;;;;;;5064958;28;20598;-58
2022/05/07 04:56:10;;;;;;;4.47;4.17;;;19.60;44.30;;;;;;5057307;28;20261;-58
2022/05/07 04:58:36;;;;;;;4.27;4.07;;;19.60;44.30;;;;;;5058133;28;20459;-58
2022/05/07 05:01:02;;;;;;;4.53;4.33;;;19.60;44.30;;;;;;5060275;28;20448;-58
2022/05/07 05:03:27;;;;;;;4.07;3.87;;;19.60;44.30;;;;;;5054228;28;20897;-57
2022/05/07 05:05:53;;;;;;;4.73;4.43;;;19.60;44.30;;;;;;5058759;28;20250;-58
2022/05/07 05:08:18;;;;;;;4.47;4.27;;;19.60;44.30;;;;;;5060662;28;20348;-58
2022/05/07 05:10:45;;;;;;;4.97;4.57;;;19.60;44.30;;;;;;5059092;28;20664;-58
2022/05/07 05:13:11;;;;;;;4.17;3.90;;;19.60;44.30;;;;;;5060562;28;20238;-58
2022/05/07 05:15:37;;;;;;;3.70;3.50;;;19.60;44.30;;;;;;5057558;28;20515;-58
2022/05/07 05:18:03;;;;;;;4.87;4.43;;;19.60;44.30;;;;;;5058821;28;20292;-57
2022/05/07 05:20:29;;;;;;;3.90;3.70;;;19.60;44.30;;;;;;5058000;28;20781;-58
2022/05/07 05:22:54;;;;;;;4.30;4.10;;;19.60;44.30;;;;;;5057659;28;20457;-58
2022/05/07 05:25:20;;;;;;;4.27;4.07;;;19.60;44.30;;;;;;5055850;28;20336;-58
2022/05/07 05:27:47;;;;;;;4.57;4.27;;;19.60;44.30;;;;;;5056275;28;20242;-58
2022/05/07 05:30:12;;;;;;;4.43;4.23;;;19.60;44.30;;;;;;5058052;28;20242;-58
2022/05/07 05:32:38;;;;;;;4.50;4.30;;;19.60;44.30;;;;;;5058477;28;20475;-58
2022/05/07 05:35:04;;;;;;;4.50;4.13;;;19.60;44.30;;;;;;5057763;28;20226;-59
2022/05/07 05:37:30;;;;;;;4.17;3.97;;;19.60;44.30;;;;;;5056207;28;20304;-58
2022/05/07 05:39:56;;;;;;;4.27;4.00;;;19.60;44.30;;;;;;5061798;28;20485;-58
2022/05/07 05:42:22;;;;;;;4.50;4.30;;;19.60;44.30;;;;;;5062202;28;20232;-58
2022/05/07 05:44:47;;;;;;;4.27;3.97;;;19.60;44.40;;;;;;5061438;27;20450;-58
2022/05/07 05:47:13;;;;;;;4.20;4.00;;;19.60;44.30;;;;;;5060594;28;20388;-57
2022/05/07 05:49:38;;;;;;;4.87;4.57;;;19.60;44.30;;;;;;5061565;28;20745;-58
2022/05/07 05:52:05;;;;;;;4.03;3.83;;;19.60;44.30;;;;;;5061414;28;20698;-58
2022/05/07 05:54:31;;;;;;;4.37;4.17;;;19.60;44.30;;;;;;5064869;28;20241;-58
2022/05/07 05:56:57;;;;;;;4.07;3.80;;;19.70;44.40;;;;;;5061459;28;20935;-57
2022/05/07 05:59:24;;;;;;;4.20;4.00;;;19.70;44.40;;;;;;5058094;28;20236;-58
2022/05/07 06:01:50;;;;;;;3.80;3.60;;;19.70;44.40;;;;;;5063508;28;20471;-58
2022/05/07 06:04:16;;;;;;;4.10;3.90;;;19.70;44.40;;;;;;5060890;28;20502;-58
2022/05/07 06:06:42;;;;;;;4.50;4.30;;;19.70;44.40;;;;;;5059236;28;20586;-58
2022/05/07 06:09:08;;;;;;;7.53;4.20;;;19.70;44.40;;;;;;5058643;28;20280;-58
2022/05/07 06:11:34;;;;;;;4.53;4.33;;;19.70;44.40;;;;;;5060011;28;20456;-58
2022/05/07 06:13:59;;;;;;;4.83;4.53;;;19.70;44.40;;;;;;5058111;28;20296;-58
2022/05/07 06:16:25;;;;;;;4.73;4.43;;;19.70;44.40;;;;;;5061314;28;20554;-58
2022/05/07 06:18:51;;;;;;;4.03;3.83;;;19.70;44.40;;;;;;5061885;28;20254;-58
2022/05/07 06:21:17;;;;;;;4.13;3.93;;;19.70;45.20;;;;;;5061630;28;20222;-57
2022/05/07 06:23:43;;;;;;;4.37;4.17;;;19.70;44.40;;;;;;5059221;28;20272;-59
2022/05/07 06:28:53;;;;;;;12.90;4.23;;;19.70;44.40;;;;;;5061561;28;20477;-58
2022/05/07 06:31:18;;;;;;;3.70;3.50;;;19.70;44.40;;;;;;5059925;28;20438;-58
2022/05/07 06:33:45;;;;;;;4.23;4.03;;;19.70;44.40;;;;;;5066351;28;20234;-61
2022/05/07 06:36:10;;;;;;;4.10;3.80;;;19.70;44.40;;;;;;5060088;28;20222;-61
2022/05/07 06:38:36;;;;;;;3.83;3.63;;;19.70;44.40;;;;;;5059790;28;20446;-60
2022/05/07 06:41:04;;;;;;;3.90;3.70;;;19.80;44.50;;;;;;5057754;28;20218;-59
2022/05/07 06:43:31;;;;;;;4.70;4.40;;;19.80;44.50;;;;;;5060485;28;20496;-59
2022/05/07 06:45:57;;;;;;;3.60;3.40;;;19.80;44.40;;;;;;5067874;28;20439;-59
2022/05/07 06:48:24;;;;;;;4.27;3.97;;;19.80;44.40;;;;;;5064176;28;20549;-58
2022/05/07 06:50:49;;;;;;;4.40;4.10;;;19.80;44.30;;;;;;5057362;28;20434;-58
2022/05/07 06:53:15;;;;;;;4.37;4.17;;;19.80;44.10;;;;;;5062721;28;20481;-58
2022/05/07 06:55:56;;;;;;;3.97;3.77;;;19.80;44.00;;;;;;5058331;28;20206;-58
2022/05/07 06:58:27;;;;;;;4.67;4.37;;;19.80;43.90;;;;;;5060476;28;20299;-57
2022/05/07 07:00:52;;;;;;;4.47;4.27;;;19.80;43.90;;;;;;5057521;28;20459;-58
2022/05/07 07:03:18;;;;;;;4.80;4.50;;;19.80;43.90;;;;;;5058156;28;20446;-58
2022/05/07 07:05:44;;;;;;;4.77;4.47;;;19.80;44.00;;;;;;5059192;28;20576;-59
2022/05/07 07:08:13;;;;;;;4.13;3.93;;;19.80;44.00;;;;;;5062446;28;20222;-58
2022/05/07 07:10:42;;;;;;;4.60;4.30;;;19.80;44.00;;;;;;5057724;28;20233;-59
2022/05/07 07:13:08;;;;;;;4.17;3.97;;;19.80;44.00;;;;;;5059916;28;20479;-59
2022/05/07 07:15:35;;;;;;;4.80;4.50;;;19.80;44.00;;;;;;5068935;28;20793;-58
2022/05/07 07:18:04;;;;;;;4.17;3.87;;;19.80;44.00;;;;;;5060008;28;20476;-58
2022/05/07 07:20:30;;;;;;;4.47;4.17;;;19.80;44.00;;;;;;5062133;28;20473;-58
2022/05/07 07:22:55;;;;;;;4.77;4.40;;;19.80;44.00;;;;;;5056980;28;20410;-58
2022/05/07 07:25:21;;;;;;;4.73;4.07;;;19.80;44.00;;;;;;5062071;28;20285;-58
2022/05/07 07:27:47;;;;;;;4.47;4.20;;;19.90;44.20;;;;;;5059139;28;20305;-58
2022/05/07 07:30:12;;;;;;;4.33;4.13;;;19.80;44.10;;;;;;5066115;28;20671;-58
2022/05/07 07:32:38;;;;;;;4.83;4.53;;;19.80;44.00;;;;;;5060428;28;20619;-58
2022/05/07 07:35:05;;;;;;;4.60;4.40;;;19.80;44.00;;;;;;5062225;28;20227;-59
2022/05/07 07:37:32;;;;;;;4.27;4.07;;;19.80;44.10;;;;;;5069164;28;20679;-58
2022/05/07 07:40:00;;;;;;;4.30;4.10;;;19.80;44.10;;;;;;5064137;28;20454;-58
2022/05/07 07:42:27;;;;;;;4.07;3.87;;;19.80;44.10;;;;;;5066665;28;20440;-58
2022/05/07 07:47:56;;;;;;;4.03;3.83;;;19.80;44.10;;;;;;5061928;28;20437;-58
2022/05/07 07:50:26;;;;;;;3.90;3.70;;;19.80;44.10;;;;;;5054159;28;20516;-58
2022/05/07 07:53:12;;;;;;;4.13;3.93;;;19.80;44.10;;;;;;5062082;28;20535;-58
2022/05/07 07:55:38;;;;;;;4.90;4.60;;;19.80;44.20;;;;;;5055306;28;20504;-58
2022/05/07 07:58:06;;;;;;;4.10;3.90;;;19.80;44.10;;;;;;5060210;28;20452;-58
2022/05/07 08:00:33;;;;;;;4.53;4.30;;;19.80;44.90;;;;;;5059755;28;20466;-58
2022/05/07 08:03:00;;;;;;;4.40;4.10;;;19.80;44.10;;;;;;5063366;28;20524;-58
2022/05/07 08:05:32;;;;;;;4.60;4.27;;;19.80;44.20;;;;;;5059188;28;20487;-58
2022/05/07 08:13:38;;;;;;;4.57;4.37;;;19.80;44.90;;;;;;5060439;28;20460;-58
2022/05/07 08:16:05;;;;;;;6.23;4.30;;;19.80;44.20;;;;;;5060073;28;20553;-58
2022/05/07 08:18:30;;;;;;;4.10;3.80;;;19.90;44.30;;;;;;5063276;28;20541;-59
2022/05/07 08:20:56;;;;;;;4.60;4.27;;;19.90;44.30;;;;;;5059511;28;21035;-61
2022/05/07 08:23:22;;;;;;;5.23;4.73;;;19.90;44.20;;;;;;5057539;28;20239;-59
2022/05/07 08:25:49;;;;;;;9.20;6.20;;;19.90;44.20;;;;;;5091264;28;20462;-60
2022/05/07 08:28:17;;;;;;;55.07;27.53;;;19.90;44.10;;;;;;5060966;28;20347;-60
2022/05/07 08:30:43;;;;;;;22.73;12.27;;;19.90;44.10;;;;;;5056139;28;20483;-60
2022/05/07 08:33:10;;;;;;;21.20;12.40;;;19.90;44.10;;;;;;5063211;28;20477;-58
2022/05/07 08:35:35;;;;;;;22.33;13.70;;;19.90;44.10;;;;;;5058488;28;20443;-60
2022/05/07 08:38:01;;;;;;;18.23;11.90;;;19.90;44.10;;;;;;5059616;28;20483;-59
2022/05/07 08:40:27;;;;;;;24.70;12.90;;;19.90;44.10;;;;;;5061843;28;20221;-60
2022/05/07 08:42:54;;;;;;;11.00;9.60;;;20.00;44.20;;;;;;5056077;28;20223;-60
2022/05/07 08:45:20;;;;;;;21.10;10.37;;;20.00;44.30;;;;;;5059936;28;21023;-59
2022/05/07 08:47:45;;;;;;;17.03;10.03;;;20.00;44.40;;;;;;5061810;28;20467;-61
2022/05/07 08:50:14;;;;;;;11.17;8.70;;;20.00;44.40;;;;;;5065712;28;20229;-60
2022/05/07 08:52:43;;;;;;;14.87;8.50;;;20.00;44.40;;;;;;5064423;28;20240;-61
2022/05/07 08:55:16;;;;;;;9.73;7.50;;;20.00;44.30;;;;;;5064639;28;20465;-61
2022/05/07 08:57:44;;;;;;;9.67;8.00;;;20.00;44.30;;;;;;5063297;28;20462;-60
2022/05/07 09:00:10;;;;;;;13.20;6.93;;;20.00;44.30;;;;;;5060868;28;20451;-60
2022/05/07 09:02:42;;;;;;;10.93;6.50;;;20.10;44.30;;;;;;5060747;28;20448;-60
2022/05/07 09:05:10;;;;;;;8.00;7.20;;;20.10;44.30;;;;;;5063125;28;20975;-59
2022/05/07 09:07:36;;;;;;;6.73;6.10;;;20.10;44.30;;;;;;5055615;28;20447;-59
2022/05/07 09:10:03;;;;;;;7.63;6.27;;;20.10;44.30;;;;;;5063985;28;20454;-60
2022/05/07 09:12:29;;;;;;;7.13;5.43;;;20.10;44.20;;;;;;5058182;28;20871;-60
2022/05/07 09:15:05;;;;;;;7.13;6.40;;;20.10;44.20;;;;;;5061766;28;20454;-59
2022/05/07 09:17:32;;;;;;;6.30;5.70;;;20.10;44.20;;;;;;5061652;28;20463;-58
2022/05/07 09:19:58;;;;;;;6.67;6.00;;;20.20;44.20;;;;;;5066083;28;20459;-59
2022/05/07 09:22:25;;;;;;;5.83;5.43;;;20.20;44.30;;;;;;5062086;28;20448;-58
2022/05/07 09:24:55;;;;;;;5.83;5.40;;;20.10;44.20;;;;;;5064254;28;20240;-58
2022/05/07 09:27:25;;;;;;;5.37;4.97;;;20.20;45.10;;;;;;5066763;28;20455;-58
2022/05/07 09:30:02;;;;;;;5.37;4.87;;;20.20;44.30;;;;;;5060039;28;20842;-59
2022/05/07 09:32:36;;;;;;;5.70;5.30;;;20.20;50.50;;;;;;5058534;28;20552;-59
2022/05/07 09:38:01;;;;;;;6.20;5.37;;;20.20;48.90;;;;;;5062234;28;20868;-60
2022/05/07 09:40:27;;;;;;;5.93;5.53;;;20.10;45.50;;;;;;5061985;28;20470;-59
2022/05/07 09:43:00;;;;;;;5.33;4.93;;;20.20;44.90;;;;;;5061928;28;20543;-59
2022/05/07 09:45:26;;;;;;;6.03;5.57;;;20.20;44.80;;;;;;5062311;28;20421;-58
2022/05/07 09:47:57;;;;;;;5.90;5.40;;;20.20;44.90;;;;;;5069045;28;20426;-58
2022/05/07 09:50:24;;;;;;;5.30;4.83;;;20.20;44.90;;;;;;5063184;28;20465;-58
2022/05/07 09:58:20;;;;;;;6.10;5.40;;;20.20;44.90;;;;;;5065883;28;20528;-59
2022/05/07 10:01:17;;;;;;;6.40;5.70;;;20.10;44.80;;;;;;5055466;28;20991;-58
2022/05/07 10:04:05;;;;;;;6.27;5.77;;;20.10;44.80;;;;;;5063731;28;20565;-59
2022/05/07 10:06:48;;;;;;;7.13;5.37;;;20.10;44.80;;;;;;5063223;28;20468;-60
2022/05/07 10:09:46;;;;;;;5.43;5.07;;;20.10;44.80;;;;;;5067155;28;20513;-61
2022/05/07 10:12:19;;;;;;;6.07;5.57;;;20.10;44.80;;;;;;5062465;28;20427;-58
2022/05/07 10:14:44;;;;;;;5.33;4.97;;;20.10;44.80;;;;;;5060674;28;20427;-61
2022/05/07 10:17:11;;;;;;;5.10;4.80;;;20.10;44.80;;;;;;5062625;28;20583;-59
2022/05/07 10:19:42;;;;;;;5.27;4.97;;;20.10;44.80;;;;;;5062837;28;20218;-59
2022/05/07 10:22:24;;;;;;;5.87;5.40;;;20.10;44.80;;;;;;5062677;28;20963;-60
2022/05/07 10:25:09;;;;;;;5.13;4.83;;;20.10;44.80;;;;;;5059435;28;20443;-59
2022/05/07 10:27:37;;;;;;;6.13;4.87;;;20.10;44.80;;;;;;5059545;28;20534;-60
2022/05/07 10:30:08;;;;;;;5.77;5.27;;;20.10;44.80;;;;;;5061681;28;20458;-60
2022/05/07 10:32:47;;;;;;;5.80;5.30;;;20.10;44.90;;;;;;5058178;28;20478;-58
2022/05/07 10:35:14;;;;;;;5.80;5.40;;;20.10;44.80;;;;;;5062028;28;20463;-60
2022/05/07 10:37:40;;;;;;;5.57;5.17;;;20.10;44.80;;;;;;5070791;28;20864;-60
2022/05/07 10:40:11;;;;;;;7.57;5.57;;;20.10;44.80;;;;;;5065979;28;20455;-59
2022/05/07 10:42:40;;;;;;;6.10;5.50;;;20.10;44.80;;;;;;5063225;28;20441;-59
2022/05/07 10:45:27;;;;;;;5.47;5.07;;;20.10;44.70;;;;;;5060899;28;20472;-58
2022/05/07 10:47:57;;;;;;;6.40;5.83;;;20.20;44.70;;;;;;5062882;28;20544;-58
2022/05/07 10:50:23;;;;;;;6.30;5.80;;;20.20;44.60;;;;;;5063512;28;20632;-60
2022/05/07 10:52:56;;;;;;;5.20;4.90;;;20.20;44.60;;;;;;5063706;28;20474;-58
2022/05/07 10:55:26;;;;;;;6.13;5.57;;;20.20;44.40;;;;;;5060820;28;20553;-60
2022/05/07 10:57:52;;;;;;;5.50;5.10;;;20.20;44.30;;;;;;5065006;28;20979;-58
2022/05/07 11:00:22;;;;;;;6.60;6.10;;;20.30;44.30;;;;;;5064577;28;20792;-59
2022/05/07 11:02:49;;;;;;;5.80;5.30;;;20.30;44.40;;;;;;5059645;28;20447;-58
2022/05/07 11:05:16;;;;;;;6.10;5.70;;;20.30;44.20;;;;;;5062937;28;20461;-57
2022/05/07 11:07:43;;;;;;;6.03;5.53;;;20.30;44.10;;;;;;5061759;28;20474;-59
2022/05/07 11:10:09;;;;;;;6.83;5.60;;;20.30;44.10;;;;;;5060979;28;20459;-59
2022/05/07 11:12:35;;;;;;;5.80;5.40;;;20.30;44.10;;;;;;5062575;28;20481;-59
2022/05/07 11:15:05;;;;;;;5.83;5.43;;;20.30;44.10;;;;;;5061657;28;20447;-61
2022/05/07 11:17:36;;;;;;;5.87;5.50;;;20.30;44.30;;;;;;5060105;28;20474;-60
2022/05/07 11:20:03;;;;;;;5.73;5.23;;;20.20;44.00;;;;;;5058431;28;20451;-59
2022/05/07 11:22:31;;;;;;;6.57;6.07;;;20.30;44.10;;;;;;5061918;28;20444;-59
2022/05/07 11:25:02;;;;;;;6.20;5.70;;;20.30;44.20;;;;;;5065258;28;20450;-58
2022/05/07 11:27:32;;;;;;;6.83;6.23;;;20.30;44.20;;;;;;5062236;28;20508;-59
2022/05/07 11:30:00;;;;;;;6.23;5.73;;;20.30;44.10;;;;;;5059047;28;20447;-60
2022/05/07 11:32:38;;;;;;;5.67;5.33;;;20.30;44.20;;;;;;5063294;28;20440;-58
2022/05/07 11:35:04;;;;;;;5.50;5.10;;;20.20;44.00;;;;;;5059615;28;20447;-59
2022/05/07 11:37:39;;;;;;;5.70;5.27;;;20.20;44.00;;;;;;5074187;28;20445;-58
2022/05/07 11:40:05;;;;;;;6.10;5.70;;;20.20;44.10;;;;;;5084675;28;20543;-59
2022/05/07 11:42:47;;;;;;;6.50;6.00;;;20.20;44.10;;;;;;5078441;28;20451;-58
2022/05/07 11:45:26;;;;;;;6.37;5.97;;;20.20;44.10;;;;;;5083387;27;20959;-60
2022/05/07 11:48:03;;;;;;;5.93;5.53;;;20.20;44.20;;;;;;5077351;28;20441;-60
2022/05/07 11:50:32;;;;;;;6.47;5.90;;;20.20;44.20;;;;;;5078827;27;20449;-59
2022/05/07 11:53:09;;;;;;;5.40;5.10;;;20.20;44.20;;;;;;5078486;28;20470;-59
2022/05/07 11:55:34;;;;;;;5.97;5.57;;;20.20;44.20;;;;;;5077717;27;20534;-60
2022/05/07 11:58:20;;;;;;;6.23;5.63;;;20.20;44.20;;;;;;5081979;27;20544;-59
2022/05/07 12:00:48;;;;;;;6.93;6.30;;;20.20;44.20;;;;;;5081390;28;20217;-59
2022/05/07 12:03:27;;;;;;;6.20;5.67;;;20.20;44.20;;;;;;5080262;28;20462;-59
2022/05/07 12:05:55;;;;;;;6.33;5.70;;;20.20;44.10;;;;;;5081098;28;20453;-61
2022/05/07 12:08:23;;;;;;;5.73;5.23;;;20.20;44.20;;;;;;5082837;27;20585;-59
2022/05/07 12:10:53;;;;;;;5.83;5.40;;;20.10;44.10;;;;;;5079473;28;20950;-60
2022/05/07 12:13:21;;;;;;;5.30;4.90;;;20.10;44.10;;;;;;5077830;28;20476;-59
2022/05/07 12:18:32;;;;;;;5.93;5.43;;;20.10;44.10;;;;;;5082530;28;20469;-59
2022/05/07 12:20:58;;;;;;;6.43;6.00;;;20.10;44.10;;;;;;5078879;27;20426;-61
2022/05/07 12:31:50;;;;;;;6.10;5.60;;;20.10;44.20;;;;;;5059962;28;20566;-59
2022/05/07 12:34:16;;;;;;;5.63;5.23;;;20.10;44.20;;;;;;5057369;28;20500;-60
2022/05/07 12:36:42;;;;;;;6.13;5.77;;;20.10;44.30;;;;;;5066964;28;20491;-59
2022/05/07 12:39:07;;;;;;;6.07;5.57;;;20.10;44.30;;;;;;5062187;28;20626;-59
2022/05/07 12:41:33;;;;;;;6.30;5.70;;;20.10;44.30;;;;;;5059515;28;20318;-61
2022/05/07 12:44:00;;;;;;;5.50;5.10;;;20.10;44.30;;;;;;5060180;28;20687;-58
2022/05/07 12:46:26;;;;;;;6.47;5.97;;;20.10;44.30;;;;;;5062196;28;20228;-60
2022/05/07 12:48:55;;;;;;;6.40;6.00;;;20.10;44.30;;;;;;5065745;28;20448;-58
2022/05/07 12:51:21;;;;;;;6.33;5.80;;;20.10;44.50;;;;;;5063191;28;20481;-58
2022/05/07 12:53:48;;;;;;;6.33;5.77;;;20.10;44.40;;;;;;5067482;28;20960;-58
2022/05/07 12:56:14;;;;;;;5.53;5.17;;;20.10;44.50;;;;;;5064662;28;20224;-58
2022/05/07 12:58:40;;;;;;;5.70;5.30;;;20.10;44.40;;;;;;5062018;28;20443;-59
2022/05/07 13:01:05;;;;;;;6.27;5.77;;;20.10;44.50;;;;;;5063143;28;20221;-59
2022/05/07 13:03:31;;;;;;;6.30;5.90;;;20.10;44.60;;;;;;5063718;28;20228;-60
2022/05/07 13:05:57;;;;;;;5.77;5.27;;;20.10;44.60;;;;;;5060649;28;20671;-58
2022/05/07 13:08:22;;;;;;;5.50;5.20;;;20.00;44.40;;;;;;5063754;28;20592;-59
2022/05/07 13:10:48;;;;;;;6.07;5.57;;;20.00;44.40;;;;;;5067133;28;20268;-60
2022/05/07 13:13:18;;;;;;;5.50;5.20;;;20.00;44.40;;;;;;5062228;28;20237;-58
2022/05/07 13:15:44;;;;;;;6.10;5.70;;;20.00;44.40;;;;;;5065953;28;20321;-59
2022/05/07 13:18:10;;;;;;;6.30;5.80;;;20.00;44.40;;;;;;5062350;28;20521;-58
2022/05/07 13:20:38;;;;;;;6.40;5.90;;;20.00;44.50;;;;;;5071813;28;20252;-60
2022/05/07 13:23:03;;;;;;;6.53;6.03;;;20.00;44.50;;;;;;5064650;28;20246;-60
2022/05/07 13:25:29;;;;;;;6.20;5.70;;;20.00;44.50;;;;;;5061728;28;20449;-59
2022/05/07 13:27:55;;;;;;;5.50;5.20;;;20.00;44.60;;;;;;5059896;28;20305;-59